Time;durP1;ratioP1;P1;durP2;ratioP2;P2;SDS_P1;SDS_P2;PMS_P1;PMS_P2;Temp;Humidity;BMP_temperature;BMP_pressure;BME280_temperature;BME280_humidity;BME280_pressure;Samples;Min_cycle;Max_cycle;Signal;HPM_P1;HPM_P2
2023/04/26 00:00:42;;;;;;;4.40;1.15;;;4.40;99.90;;;;;;4043231;29;20073;-86
2023/04/26 00:02:48;;;;;;;5.07;1.33;;;4.40;99.90;;;;;;4043645;29;20124;-85
2023/04/26 00:04:57;;;;;;;6.88;1.45;;;4.40;99.90;;;;;;4042447;29;20108;-85
2023/04/26 00:06:59;;;;;;;7.40;1.48;;;4.40;99.90;;;;;;4059442;29;20399;-86
2023/04/26 00:09:01;;;;;;;5.30;1.25;;;3.40;99.90;;;;;;4026969;29;20132;-85
2023/04/26 00:11:02;;;;;;;11.38;2.17;;;4.20;99.90;;;;;;4027362;29;20057;-86
2023/04/26 00:13:03;;;;;;;7.72;1.88;;;4.20;99.90;;;;;;4059788;29;20546;-86
2023/04/26 00:15:05;;;;;;;7.05;1.48;;;4.20;99.90;;;;;;4042629;29;20101;-86
2023/04/26 00:17:07;;;;;;;9.52;2.05;;;4.20;99.90;;;;;;4058400;29;20035;-85
2023/04/26 00:19:09;;;;;;;5.32;1.20;;;4.20;99.90;;;;;;4042691;29;20049;-85
2023/04/26 00:21:12;;;;;;;4.90;1.48;;;4.20;99.90;;;;;;4059475;29;20082;-85
2023/04/26 00:23:13;;;;;;;5.25;1.52;;;4.30;99.90;;;;;;4027061;29;20101;-86
2023/04/26 00:25:14;;;;;;;6.38;1.40;;;5.70;99.90;;;;;;4059078;29;20053;-84
2023/04/26 00:27:19;;;;;;;8.38;2.58;;;5.40;99.90;;;;;;4060007;29;20516;-84
2023/04/26 00:29:20;;;;;;;4.55;1.63;;;4.30;99.90;;;;;;4057740;29;20460;-84
2023/04/26 00:31:21;;;;;;;5.38;1.63;;;5.70;99.90;;;;;;4058406;29;20445;-85
2023/04/26 00:33:26;;;;;;;7.55;1.45;;;4.40;99.90;;;;;;4050660;29;20052;-85
2023/04/26 00:35:28;;;;;;;6.50;1.92;;;4.40;99.90;;;;;;4042159;29;20049;-85
2023/04/26 00:37:29;;;;;;;4.55;1.50;;;4.40;99.90;;;;;;4010557;29;20068;-85
2023/04/26 00:39:30;;;;;;;8.07;1.92;;;4.30;99.90;;;;;;4041689;29;20049;-85
2023/04/26 00:41:32;;;;;;;8.73;2.13;;;4.70;99.90;;;;;;4025725;29;20045;-85
2023/04/26 00:43:34;;;;;;;7.13;1.40;;;4.30;99.90;;;;;;4041473;29;20053;-85
2023/04/26 00:45:38;;;;;;;6.07;1.35;;;4.20;99.90;;;;;;4010949;29;20563;-85
2023/04/26 00:47:40;;;;;;;5.40;1.23;;;3.30;99.90;;;;;;4025469;29;20057;-85
2023/04/26 00:49:40;;;;;;;4.78;1.75;;;4.20;99.90;;;;;;4047890;29;20561;-85
2023/04/26 00:51:43;;;;;;;8.30;1.83;;;5.50;99.90;;;;;;4041928;29;20060;-86
2023/04/26 00:53:44;;;;;;;23.17;2.00;;;4.00;99.90;;;;;;4056534;29;20128;-85
2023/04/26 00:55:46;;;;;;;15.07;2.22;;;4.00;99.90;;;;;;4026296;29;20066;-85
2023/04/26 00:57:51;;;;;;;5.05;1.27;;;2.80;99.90;;;;;;4057469;29;20558;-86
2023/04/26 00:59:54;;;;;;;7.15;1.55;;;4.00;99.90;;;;;;4057798;29;20512;-86
2023/04/26 01:01:56;;;;;;;6.70;1.90;;;4.00;99.90;;;;;;4041945;29;20487;-85
2023/04/26 01:03:57;;;;;;;9.85;1.63;;;4.00;99.90;;;;;;4058779;29;20052;-85
2023/04/26 01:05:58;;;;;;;5.85;1.63;;;4.00;99.90;;;;;;4042050;29;20125;-86
2023/04/26 01:08:01;;;;;;;6.65;1.88;;;4.00;99.90;;;;;;4054272;29;20088;-86
2023/04/26 01:10:05;;;;;;;5.38;1.90;;;4.00;99.90;;;;;;4040895;29;20063;-86
2023/04/26 01:12:07;;;;;;;7.68;2.03;;;4.00;99.90;;;;;;4042578;29;20056;-85
2023/04/26 01:14:10;;;;;;;7.32;1.70;;;4.00;99.90;;;;;;4011313;29;20127;-85
2023/04/26 01:16:14;;;;;;;7.75;1.90;;;4.20;99.90;;;;;;4035604;29;20074;-84
2023/04/26 01:18:16;;;;;;;3.88;1.55;;;4.80;99.90;;;;;;4057860;29;20052;-85
2023/04/26 01:20:17;;;;;;;6.80;1.75;;;4.20;99.90;;;;;;4026351;29;20053;-84
2023/04/26 01:22:18;;;;;;;9.25;1.50;;;4.00;99.90;;;;;;4041053;29;20606;-85
2023/04/26 01:24:20;;;;;;;11.07;2.00;;;3.90;99.90;;;;;;4057047;29;20051;-85
2023/04/26 01:26:21;;;;;;;9.18;2.28;;;3.50;99.90;;;;;;4056589;29;20079;-85
2023/04/26 01:28:23;;;;;;;8.45;1.52;;;4.00;99.90;;;;;;4056874;29;20486;-86
2023/04/26 01:30:24;;;;;;;2.20;1.15;;;4.80;99.90;;;;;;4058248;29;20045;-85
2023/04/26 01:32:25;;;;;;;8.52;1.90;;;4.00;99.90;;;;;;4041084;29;20113;-85
2023/04/26 01:34:26;;;;;;;7.63;1.45;;;4.00;99.90;;;;;;4041090;29;20063;-84
2023/04/26 01:36:31;;;;;;;3.80;1.50;;;3.80;99.90;;;;;;4040808;29;20048;-86
2023/04/26 01:38:35;;;;;;;7.20;1.35;;;4.10;99.90;;;;;;4058983;29;20525;-85
2023/04/26 01:40:37;;;;;;;6.05;1.63;;;4.10;99.90;;;;;;4026349;29;20049;-85
2023/04/26 01:42:38;;;;;;;9.35;2.13;;;4.10;99.90;;;;;;4059136;29;20556;-85
2023/04/26 01:44:44;;;;;;;5.13;1.77;;;4.10;99.90;;;;;;4026166;29;20460;-85
2023/04/26 01:46:45;;;;;;;7.07;1.45;;;4.90;99.90;;;;;;4027787;29;20061;-85
2023/04/26 01:48:47;;;;;;;6.63;2.08;;;4.20;99.90;;;;;;4011413;29;20392;-85
2023/04/26 01:50:48;;;;;;;6.97;1.58;;;5.00;99.90;;;;;;4041899;29;20051;-85
2023/04/26 01:52:50;;;;;;;3.72;1.33;;;4.00;99.90;;;;;;4026575;29;20065;-84
2023/04/26 01:54:52;;;;;;;5.88;1.38;;;5.50;99.90;;;;;;4042519;29;20065;-85
2023/04/26 01:56:54;;;;;;;4.93;2.17;;;4.00;99.90;;;;;;4026263;29;20053;-85
2023/04/26 01:58:56;;;;;;;4.25;1.52;;;4.20;99.90;;;;;;4026016;29;20066;-85
2023/04/26 02:01:08;;;;;;;7.47;2.05;;;4.40;99.90;;;;;;4009525;29;20046;-85
2023/04/26 02:03:10;;;;;;;5.35;1.88;;;4.80;99.90;;;;;;4043289;29;20052;-86
2023/04/26 02:05:12;;;;;;;5.97;1.85;;;4.10;99.90;;;;;;4025527;29;20045;-86
2023/04/26 02:07:14;;;;;;;8.00;1.42;;;4.10;99.90;;;;;;4056860;29;20532;-85
2023/04/26 02:09:17;;;;;;;9.00;2.15;;;4.10;99.90;;;;;;4057926;29;20073;-85
2023/04/26 02:11:18;;;;;;;7.78;2.30;;;4.10;99.90;;;;;;4040078;29;20124;-86
2023/04/26 02:13:19;;;;;;;14.77;2.03;;;5.30;99.90;;;;;;4025945;29;20089;-84
2023/04/26 02:15:21;;;;;;;6.03;1.55;;;4.00;99.90;;;;;;4057624;29;20044;-86
2023/04/26 02:17:26;;;;;;;7.78;1.80;;;5.20;99.90;;;;;;4025348;29;20471;-85
2023/04/26 02:19:32;;;;;;;10.20;2.25;;;4.00;99.90;;;;;;4041394;29;20051;-86
2023/04/26 02:21:51;;;;;;;8.85;1.98;;;4.00;99.90;;;;;;4028081;29;20053;-85
2023/04/26 02:23:53;;;;;;;8.90;1.95;;;4.40;99.90;;;;;;4025292;29;20053;-85
2023/04/26 02:25:56;;;;;;;10.25;2.13;;;4.00;99.90;;;;;;4042188;29;20104;-85
2023/04/26 02:27:57;;;;;;;6.85;1.33;;;3.90;99.90;;;;;;4025203;29;20517;-85
2023/04/26 02:30:03;;;;;;;4.05;1.88;;;4.00;99.90;;;;;;4042039;29;20550;-85
2023/04/26 02:32:04;;;;;;;5.72;1.67;;;3.70;99.90;;;;;;4024773;29;20392;-86
2023/04/26 02:34:07;;;;;;;6.97;1.60;;;3.90;99.90;;;;;;4009880;29;20049;-85
2023/04/26 02:36:09;;;;;;;8.02;2.13;;;4.00;99.90;;;;;;4040517;29;20041;-85
2023/04/26 02:38:12;;;;;;;13.27;1.98;;;4.10;99.90;;;;;;4014114;29;20053;-85
2023/04/26 02:40:17;;;;;;;7.22;1.55;;;4.40;99.90;;;;;;4049960;29;20078;-85
2023/04/26 02:42:20;;;;;;;4.13;1.23;;;4.00;99.90;;;;;;4057376;29;20048;-85
2023/04/26 02:44:22;;;;;;;4.65;1.67;;;3.90;99.90;;;;;;4057244;29;20080;-85
2023/04/26 02:46:23;;;;;;;7.75;1.90;;;3.90;99.90;;;;;;4042475;29;20096;-86
2023/04/26 02:48:25;;;;;;;7.30;1.42;;;3.00;99.90;;;;;;4028112;29;20056;-86
2023/04/26 02:50:26;;;;;;;3.63;1.75;;;4.80;99.90;;;;;;4060878;29;20055;-85
2023/04/26 02:52:34;;;;;;;9.57;1.67;;;4.70;99.90;;;;;;4045170;29;20057;-85
2023/04/26 02:54:36;;;;;;;7.15;1.33;;;3.90;99.90;;;;;;4045551;29;20049;-85
2023/04/26 02:56:37;;;;;;;4.43;1.98;;;4.40;99.90;;;;;;4043732;29;20049;-85
2023/04/26 02:58:38;;;;;;;5.65;2.13;;;4.50;99.90;;;;;;4020150;29;20046;-86
2023/04/26 03:00:46;;;;;;;2.35;1.15;;;5.30;99.90;;;;;;4063179;29;20569;-86
2023/04/26 03:02:47;;;;;;;3.65;1.20;;;3.80;99.90;;;;;;4058814;29;20059;-86
2023/04/26 03:04:48;;;;;;;5.22;2.25;;;3.80;99.90;;;;;;4015210;29;20050;-85
2023/04/26 03:06:50;;;;;;;7.63;2.08;;;3.90;99.90;;;;;;4015075;29;20435;-85
2023/04/26 03:08:55;;;;;;;5.28;1.13;;;4.30;99.90;;;;;;4047713;29;20052;-84
2023/04/26 03:10:57;;;;;;;4.18;1.20;;;3.90;99.90;;;;;;4031310;29;20052;-85
2023/04/26 03:12:58;;;;;;;5.47;1.48;;;5.30;99.90;;;;;;4046946;29;20072;-85
2023/04/26 03:15:02;;;;;;;8.15;2.03;;;3.90;99.90;;;;;;4050093;29;20048;-85
2023/04/26 03:17:05;;;;;;;8.05;2.08;;;3.80;99.90;;;;;;4045321;29;20128;-85
2023/04/26 03:19:07;;;;;;;2.75;1.08;;;3.90;99.90;;;;;;4046343;29;20066;-84
2023/04/26 03:21:08;;;;;;;4.78;1.90;;;3.90;99.90;;;;;;4045535;29;20053;-86
2023/04/26 03:23:13;;;;;;;3.13;1.35;;;5.20;99.90;;;;;;4052415;29;20061;-85
2023/04/26 03:25:17;;;;;;;7.90;1.70;;;3.80;99.90;;;;;;4041547;29;20045;-86
2023/04/26 03:27:28;;;;;;;4.05;1.20;;;3.90;99.90;;;;;;4057889;29;20053;-85
2023/04/26 03:29:28;;;;;;;7.63;2.33;;;3.90;99.90;;;;;;4056489;29;20052;-85
2023/04/26 03:31:30;;;;;;;5.85;1.80;;;5.30;99.90;;;;;;4029008;29;20045;-85
2023/04/26 03:33:34;;;;;;;4.90;1.58;;;3.90;99.90;;;;;;4054863;29;20547;-85
2023/04/26 03:35:36;;;;;;;2.38;1.20;;;3.70;99.90;;;;;;4056698;29;20063;-86
2023/04/26 03:37:38;;;;;;;4.57;1.33;;;3.90;99.90;;;;;;4059975;29;20104;-86
2023/04/26 03:39:40;;;;;;;9.05;1.52;;;3.80;99.90;;;;;;4060657;29;20072;-86
2023/04/26 03:41:44;;;;;;;13.45;1.70;;;3.80;99.90;;;;;;4044729;29;20433;-85
2023/04/26 03:43:56;;;;;;;7.82;1.25;;;3.80;99.90;;;;;;4029344;29;20057;-85
2023/04/26 03:45:59;;;;;;;2.95;1.63;;;3.80;99.90;;;;;;4029017;29;20053;-85
2023/04/26 03:48:02;;;;;;;7.65;1.67;;;3.70;99.90;;;;;;4028848;29;20061;-85
2023/04/26 03:50:03;;;;;;;4.70;1.20;;;3.60;99.90;;;;;;4059794;29;20116;-85
2023/04/26 03:52:04;;;;;;;6.63;1.48;;;3.60;99.90;;;;;;4030546;29;20049;-86
2023/04/26 03:54:05;;;;;;;8.18;2.53;;;4.30;99.90;;;;;;4028393;29;20150;-86
2023/04/26 03:56:07;;;;;;;7.80;1.90;;;3.40;99.90;;;;;;4027990;29;20111;-85
2023/04/26 03:58:15;;;;;;;4.25;1.55;;;3.20;99.90;;;;;;4043775;29;20049;-85
2023/04/26 04:00:16;;;;;;;6.25;1.27;;;3.60;99.90;;;;;;4027736;29;20060;-85
2023/04/26 04:02:18;;;;;;;8.05;1.92;;;2.50;99.90;;;;;;4045015;29;20120;-86
2023/04/26 04:04:21;;;;;;;5.50;1.42;;;4.10;99.90;;;;;;4013094;29;20407;-85
2023/04/26 04:06:22;;;;;;;2.78;1.02;;;3.60;99.90;;;;;;4028678;29;20121;-85
2023/04/26 04:08:23;;;;;;;5.43;1.17;;;4.20;99.90;;;;;;4024059;29;20049;-86
2023/04/26 04:10:28;;;;;;;3.75;1.10;;;5.20;99.90;;;;;;4044470;29;20101;-85
2023/04/26 04:12:29;;;;;;;8.82;1.67;;;2.30;99.90;;;;;;4044009;29;20112;-86
2023/04/26 04:14:31;;;;;;;3.10;0.93;;;2.40;99.90;;;;;;4043462;29;20049;-86
2023/04/26 04:16:35;;;;;;;4.05;1.10;;;3.70;99.90;;;;;;4043314;29;20052;-85
2023/04/26 04:18:38;;;;;;;5.13;1.02;;;4.90;99.90;;;;;;4059222;29;20040;-85
2023/04/26 04:20:40;;;;;;;3.92;1.58;;;3.80;99.90;;;;;;4043118;29;20053;-87
2023/04/26 04:22:50;;;;;;;4.55;1.00;;;3.80;99.90;;;;;;4043104;29;20056;-85
2023/04/26 04:24:51;;;;;;;4.13;0.98;;;3.90;99.90;;;;;;4033569;29;20073;-86
2023/04/26 04:26:54;;;;;;;5.55;1.23;;;3.90;99.90;;;;;;4060184;29;20049;-85
2023/04/26 04:29:07;;;;;;;3.33;1.30;;;4.00;99.90;;;;;;4042721;29;20131;-87
2023/04/26 04:31:10;;;;;;;2.97;1.30;;;5.40;99.90;;;;;;4060512;29;20053;-86
2023/04/26 04:33:12;;;;;;;6.45;1.30;;;5.30;99.90;;;;;;4060305;29;20053;-85
2023/04/26 04:35:16;;;;;;;4.68;1.52;;;4.00;99.90;;;;;;4042575;29;20064;-85
2023/04/26 04:37:17;;;;;;;6.00;1.20;;;3.90;99.90;;;;;;4060626;29;20116;-85
2023/04/26 04:39:22;;;;;;;4.72;1.17;;;4.00;99.90;;;;;;4043286;29;20048;-86
2023/04/26 04:41:28;;;;;;;12.05;2.90;;;4.70;99.90;;;;;;4043001;29;20501;-86
2023/04/26 04:43:30;;;;;;;2.85;1.20;;;4.10;99.90;;;;;;4048962;29;20045;-84
2023/04/26 04:45:30;;;;;;;6.40;1.30;;;4.00;99.90;;;;;;4028997;29;20077;-85
2023/04/26 04:47:38;;;;;;;4.60;1.17;;;4.20;99.90;;;;;;4059324;29;20041;-85
2023/04/26 04:49:43;;;;;;;6.80;1.20;;;4.30;99.90;;;;;;4042419;29;20287;-85
2023/04/26 04:51:44;;;;;;;8.20;1.88;;;4.20;99.90;;;;;;4059214;29;20048;-86
2023/04/26 04:53:45;;;;;;;4.10;1.42;;;4.30;99.90;;;;;;4042232;29;20045;-86
2023/04/26 04:55:51;;;;;;;8.82;1.52;;;4.60;99.90;;;;;;4057957;29;20045;-86
2023/04/26 04:57:52;;;;;;;6.07;1.70;;;5.00;99.90;;;;;;4042396;29;20049;-86
2023/04/26 04:59:54;;;;;;;5.60;1.27;;;4.30;99.90;;;;;;4027044;29;20502;-85
2023/04/26 05:02:01;;;;;;;5.72;1.83;;;4.40;99.90;;;;;;4026704;29;20045;-86
2023/04/26 05:04:05;;;;;;;7.68;1.63;;;4.40;99.90;;;;;;4026512;29;20049;-86
2023/04/26 05:06:07;;;;;;;4.47;1.92;;;4.40;99.90;;;;;;4042483;29;20148;-85
2023/04/26 05:08:08;;;;;;;2.70;1.10;;;4.50;99.90;;;;;;4042108;29;20061;-85
2023/04/26 05:10:10;;;;;;;3.95;1.15;;;6.10;99.90;;;;;;4041413;29;20526;-86
2023/04/26 05:12:11;;;;;;;4.53;1.52;;;4.50;99.90;;;;;;4059511;29;20451;-85
2023/04/26 05:14:13;;;;;;;4.57;1.60;;;4.50;99.90;;;;;;4058892;29;20061;-86
2023/04/26 05:16:15;;;;;;;2.53;1.38;;;4.60;99.90;;;;;;4057582;29;20485;-86
2023/04/26 05:18:17;;;;;;;2.45;1.15;;;4.60;99.90;;;;;;4041262;29;20064;-87
2023/04/26 05:20:20;;;;;;;4.80;1.02;;;5.50;99.90;;;;;;4057346;29;20092;-87
2023/04/26 05:22:21;;;;;;;6.13;1.30;;;4.70;99.90;;;;;;4044726;29;20089;-86
2023/04/26 05:24:22;;;;;;;3.28;1.10;;;5.00;99.90;;;;;;4056728;29;20502;-86
2023/04/26 05:26:24;;;;;;;3.92;1.27;;;4.10;99.90;;;;;;4042182;29;20146;-87
2023/04/26 05:28:29;;;;;;;6.15;1.67;;;6.20;99.90;;;;;;4058210;29;20550;-87
2023/04/26 05:30:31;;;;;;;5.57;1.73;;;4.60;99.90;;;;;;4025063;29;20049;-87
2023/04/26 05:32:32;;;;;;;5.93;1.15;;;4.60;99.90;;;;;;4042397;29;20069;-88
2023/04/26 05:34:37;;;;;;;7.30;1.73;;;4.60;99.90;;;;;;4040132;29;20045;-88
2023/04/26 05:36:40;;;;;;;2.97;1.13;;;3.40;99.90;;;;;;4039373;29;20053;-88
2023/04/26 05:38:42;;;;;;;10.98;2.33;;;4.50;99.90;;;;;;4025206;29;20053;-87
2023/04/26 05:40:44;;;;;;;2.83;1.35;;;4.60;99.90;;;;;;4026044;29;20435;-87
2023/04/26 05:42:46;;;;;;;3.58;1.75;;;4.50;99.90;;;;;;4024061;29;20065;-88
2023/04/26 05:44:47;;;;;;;6.00;1.90;;;5.50;99.90;;;;;;4025550;29;20511;-86
2023/04/26 05:46:52;;;;;;;6.03;1.80;;;4.10;99.90;;;;;;4027427;29;20161;-87
2023/04/26 05:49:01;;;;;;;6.05;1.70;;;4.20;99.90;;;;;;4041469;29;20086;-88
2023/04/26 05:51:04;;;;;;;2.13;1.45;;;6.00;99.90;;;;;;4041736;29;20550;-83
2023/04/26 05:53:06;;;;;;;6.43;1.45;;;4.90;99.90;;;;;;4025671;29;20048;-83
2023/04/26 05:55:09;;;;;;;3.47;1.20;;;5.00;99.90;;;;;;4043931;29;20064;-85
2023/04/26 05:57:11;;;;;;;6.05;1.48;;;5.10;99.90;;;;;;4040674;29;20077;-85
2023/04/26 05:59:12;;;;;;;7.80;1.63;;;5.20;99.90;;;;;;4040474;29;20060;-85
2023/04/26 06:01:19;;;;;;;4.43;2.17;;;5.50;99.90;;;;;;4009628;29;20058;-85
2023/04/26 06:03:21;;;;;;;5.28;1.73;;;5.40;99.90;;;;;;4041233;29;20049;-84
2023/04/26 06:05:24;;;;;;;2.30;1.10;;;5.30;99.90;;;;;;4010128;29;20526;-85
2023/04/26 06:07:26;;;;;;;9.15;2.45;;;5.20;99.90;;;;;;4010508;29;20114;-84
2023/04/26 06:09:31;;;;;;;4.55;1.40;;;5.30;99.90;;;;;;4009228;29;20054;-85
2023/04/26 06:11:32;;;;;;;5.70;1.95;;;5.20;99.90;;;;;;4054531;29;20033;-84
2023/04/26 06:13:34;;;;;;;6.07;1.98;;;5.20;99.90;;;;;;4039748;29;20152;-84
2023/04/26 06:15:39;;;;;;;4.57;1.10;;;6.60;99.90;;;;;;4025908;29;20061;-85
2023/04/26 06:17:40;;;;;;;3.13;1.42;;;5.30;99.90;;;;;;4041136;29;20088;-84
2023/04/26 06:19:42;;;;;;;4.47;1.38;;;5.30;99.90;;;;;;4039740;29;20056;-85
2023/04/26 06:21:44;;;;;;;4.35;1.70;;;6.60;99.90;;;;;;4056415;29;20049;-85
2023/04/26 06:23:48;;;;;;;10.07;1.95;;;4.70;99.90;;;;;;4039389;29;20044;-84
2023/04/26 06:25:50;;;;;;;6.93;1.42;;;5.70;99.90;;;;;;4057452;29;20366;-85
2023/04/26 06:27:52;;;;;;;7.18;1.23;;;5.90;99.90;;;;;;4038280;29;20516;-85
2023/04/26 06:29:55;;;;;;;3.20;1.15;;;6.10;99.90;;;;;;4020387;29;20600;-85
2023/04/26 06:31:57;;;;;;;2.72;1.20;;;6.10;99.90;;;;;;4039403;29;20665;-84
2023/04/26 06:33:59;;;;;;;7.53;1.30;;;6.30;99.90;;;;;;4055568;29;20049;-84
2023/04/26 06:36:00;;;;;;;14.93;2.75;;;5.30;99.90;;;;;;4040930;29;20057;-84
2023/04/26 06:38:00;;;;;;;6.53;1.70;;;6.70;99.90;;;;;;4055058;29;20128;-85
2023/04/26 06:40:04;;;;;;;2.80;0.85;;;6.80;99.90;;;;;;4055945;29;20052;-85
2023/04/26 06:42:05;;;;;;;4.32;1.60;;;6.80;99.90;;;;;;4023271;29;20057;-85
2023/04/26 06:44:07;;;;;;;6.38;1.27;;;7.00;99.90;;;;;;4055492;29;20041;-85
2023/04/26 06:46:08;;;;;;;6.63;1.58;;;7.00;99.90;;;;;;4050905;29;20041;-84
2023/04/26 06:48:09;;;;;;;5.85;1.15;;;6.60;99.90;;;;;;4038661;29;20064;-85
2023/04/26 06:50:10;;;;;;;3.70;1.45;;;7.10;99.90;;;;;;4056195;29;20033;-84
2023/04/26 06:52:15;;;;;;;7.72;1.55;;;7.10;99.90;;;;;;4054953;29;20049;-85
2023/04/26 06:54:17;;;;;;;7.47;1.50;;;7.30;99.90;;;;;;4040383;29;20057;-85
2023/04/26 06:56:18;;;;;;;5.40;1.40;;;7.40;99.90;;;;;;4037920;29;20056;-85
2023/04/26 06:58:20;;;;;;;6.78;1.80;;;7.50;99.90;;;;;;4035362;29;20049;-85
2023/04/26 07:00:21;;;;;;;5.05;1.45;;;7.60;99.90;;;;;;4050053;29;20051;-84
2023/04/26 07:02:23;;;;;;;5.22;1.50;;;7.60;99.90;;;;;;4007793;29;20568;-84
2023/04/26 07:04:25;;;;;;;5.88;1.20;;;7.50;99.90;;;;;;4008169;29;20187;-84
2023/04/26 07:06:27;;;;;;;8.80;1.30;;;8.10;99.90;;;;;;4023029;29;20434;-84
2023/04/26 07:08:27;;;;;;;6.15;1.15;;;7.70;99.90;;;;;;4039626;29;20129;-84
2023/04/26 07:10:29;;;;;;;5.15;1.10;;;7.90;99.90;;;;;;4006612;29;20050;-83
2023/04/26 07:12:30;;;;;;;1.92;1.00;;;8.00;99.90;;;;;;4023067;29;20590;-83
2023/04/26 07:14:31;;;;;;;5.30;1.05;;;8.20;99.90;;;;;;4022617;29;20057;-85
2023/04/26 07:16:33;;;;;;;3.03;1.17;;;8.30;99.90;;;;;;4050308;29;20497;-85
2023/04/26 07:18:34;;;;;;;6.20;1.20;;;9.20;99.90;;;;;;4039872;29;20055;-85
2023/04/26 07:20:36;;;;;;;8.13;1.33;;;8.50;99.90;;;;;;4038505;29;20080;-85
2023/04/26 07:22:37;;;;;;;5.13;1.35;;;8.60;99.90;;;;;;4024242;29;20384;-84
2023/04/26 07:24:39;;;;;;;15.15;1.52;;;8.60;99.90;;;;;;4054965;29;20041;-84
2023/04/26 07:26:41;;;;;;;3.15;1.20;;;8.50;99.90;;;;;;4038547;29;20450;-84
2023/04/26 07:28:43;;;;;;;3.95;1.42;;;8.50;99.90;;;;;;4038639;29;20605;-84
2023/04/26 07:30:44;;;;;;;5.65;1.30;;;8.60;99.90;;;;;;4037640;29;20087;-84
2023/04/26 07:32:46;;;;;;;6.47;1.30;;;8.60;99.90;;;;;;4039518;29;20053;-85
2023/04/26 07:34:48;;;;;;;8.68;2.40;;;8.70;99.90;;;;;;4058147;29;20155;-85
2023/04/26 07:36:50;;;;;;;13.20;1.95;;;8.90;99.90;;;;;;4058780;29;20052;-85
2023/04/26 07:38:50;;;;;;;9.05;1.70;;;9.10;99.90;;;;;;4041005;29;20045;-86
2023/04/26 07:40:55;;;;;;;6.35;2.20;;;8.90;99.90;;;;;;4047251;29;20044;-87
2023/04/26 07:42:56;;;;;;;5.60;1.50;;;9.40;99.90;;;;;;4059426;29;20048;-84
2023/04/26 07:44:59;;;;;;;6.38;1.42;;;9.20;99.90;;;;;;4040904;29;20060;-85
2023/04/26 07:47:00;;;;;;;5.35;1.60;;;9.10;99.90;;;;;;4026511;29;20498;-85
2023/04/26 07:49:01;;;;;;;4.78;1.90;;;9.10;99.90;;;;;;4025991;29;20132;-86
2023/04/26 07:51:10;;;;;;;7.88;1.30;;;9.10;99.90;;;;;;4041188;29;20057;-86
2023/04/26 07:53:12;;;;;;;5.57;1.33;;;8.90;99.90;;;;;;4041576;29;20053;-85
2023/04/26 07:55:13;;;;;;;5.38;1.10;;;8.80;99.90;;;;;;4040979;29;20133;-85
2023/04/26 07:57:14;;;;;;;5.25;1.33;;;8.90;99.90;;;;;;4026622;29;20491;-86
2023/04/26 07:59:16;;;;;;;4.22;1.45;;;8.20;99.90;;;;;;4041597;29;20048;-86
2023/04/26 08:01:17;;;;;;;8.85;2.38;;;9.40;99.90;;;;;;4058790;29;20049;-86
2023/04/26 08:03:18;;;;;;;5.10;1.42;;;9.70;99.90;;;;;;4041731;29;20076;-86
2023/04/26 08:05:19;;;;;;;6.03;1.20;;;9.90;99.90;;;;;;4041771;29;20095;-85
2023/04/26 08:07:20;;;;;;;3.28;1.33;;;10.10;99.90;;;;;;4058715;29;20045;-86
2023/04/26 08:09:22;;;;;;;6.75;1.88;;;10.10;99.90;;;;;;4041214;29;20045;-86
2023/04/26 08:11:23;;;;;;;5.78;1.27;;;10.00;99.90;;;;;;4026180;29;20057;-85
2023/04/26 08:13:24;;;;;;;5.25;1.20;;;9.80;99.90;;;;;;4056733;29;20056;-85
2023/04/26 08:15:25;;;;;;;5.88;1.30;;;9.30;99.90;;;;;;4035078;29;20049;-85
2023/04/26 08:17:26;;;;;;;4.53;1.58;;;9.60;99.90;;;;;;4040865;29;20045;-84
2023/04/26 08:19:31;;;;;;;10.52;1.55;;;9.50;99.90;;;;;;4040393;29;20081;-85
2023/04/26 08:21:32;;;;;;;5.97;1.27;;;9.50;99.90;;;;;;4049543;29;20076;-85
2023/04/26 08:23:36;;;;;;;5.70;1.35;;;9.70;99.90;;;;;;4057445;29;20036;-84
2023/04/26 08:25:37;;;;;;;7.75;1.50;;;9.80;99.90;;;;;;4041818;29;20049;-86
2023/04/26 08:27:39;;;;;;;7.30;1.83;;;10.00;99.90;;;;;;4039159;29;20176;-85
2023/04/26 08:29:40;;;;;;;4.88;1.08;;;8.90;99.90;;;;;;4042404;29;20057;-85
2023/04/26 08:31:42;;;;;;;5.47;1.15;;;10.50;99.90;;;;;;4041573;29;20234;-86
2023/04/26 08:33:45;;;;;;;11.32;1.52;;;10.80;99.90;;;;;;4041608;29;20431;-85
2023/04/26 08:35:46;;;;;;;6.13;1.05;;;10.90;99.90;;;;;;4041848;29;20088;-86
2023/04/26 08:37:47;;;;;;;10.05;1.30;;;10.80;99.90;;;;;;4025337;29;20049;-86
2023/04/26 08:39:47;;;;;;;4.97;1.10;;;10.70;99.90;;;;;;4051096;29;20044;-86
2023/04/26 08:41:56;;;;;;;12.93;1.00;;;10.60;99.90;;;;;;4040072;29;20151;-86
2023/04/26 08:43:57;;;;;;;4.53;1.17;;;9.70;99.90;;;;;;4057417;29;20045;-86
2023/04/26 08:45:59;;;;;;;8.50;1.15;;;10.20;99.90;;;;;;4057513;29;20119;-87
2023/04/26 08:48:10;;;;;;;7.75;1.30;;;10.10;99.90;;;;;;4057312;29;20048;-87
2023/04/26 08:50:14;;;;;;;10.15;1.10;;;9.90;99.90;;;;;;4057896;29;20049;-87
2023/04/26 08:52:21;;;;;;;6.70;1.70;;;9.70;99.90;;;;;;4057095;29;20076;-87
2023/04/26 08:54:24;;;;;;;7.82;1.05;;;9.60;99.90;;;;;;4040445;29;20084;-87
2023/04/26 08:56:27;;;;;;;7.13;1.17;;;9.50;99.90;;;;;;4014957;29;20054;-87
2023/04/26 08:58:28;;;;;;;4.90;0.80;;;9.50;99.90;;;;;;4022983;29;20499;-88
2023/04/26 09:00:30;;;;;;;8.48;1.77;;;9.30;99.90;;;;;;4025138;29;20061;-86
2023/04/26 09:02:32;;;;;;;6.97;1.45;;;9.30;99.90;;;;;;4054636;29;20185;-87
2023/04/26 09:04:33;;;;;;;4.90;1.08;;;9.30;99.90;;;;;;4040704;29;20045;-87
2023/04/26 09:06:36;;;;;;;5.03;1.35;;;9.30;99.90;;;;;;4040758;29;20057;-86
2023/04/26 09:08:40;;;;;;;5.68;1.13;;;9.40;99.90;;;;;;4040740;29;20053;-86
2023/04/26 09:10:41;;;;;;;4.93;0.90;;;9.50;99.90;;;;;;4040058;29;20053;-85
2023/04/26 09:12:42;;;;;;;2.75;0.70;;;9.60;99.90;;;;;;4057303;29;20048;-85
2023/04/26 09:14:43;;;;;;;5.32;0.90;;;9.70;99.90;;;;;;4048472;29;20091;-87
2023/04/26 09:16:44;;;;;;;7.60;0.85;;;9.80;99.90;;;;;;4053165;29;20514;-86
2023/04/26 09:18:51;;;;;;;4.00;0.98;;;9.90;99.90;;;;;;4063242;29;20040;-86
2023/04/26 09:21:06;;;;;;;3.10;0.90;;;10.00;99.90;;;;;;4056384;29;20489;-87
2023/04/26 09:23:08;;;;;;;7.93;1.48;;;10.10;99.90;;;;;;4056644;29;20054;-87
2023/04/26 09:25:12;;;;;;;6.15;0.90;;;10.10;99.90;;;;;;4062149;29;20108;-86
2023/04/26 09:27:15;;;;;;;6.47;1.10;;;10.20;99.90;;;;;;4070324;29;20060;-85
2023/04/26 09:29:19;;;;;;;5.90;0.85;;;10.30;99.90;;;;;;4061925;29;20048;-83
2023/04/26 09:31:45;;;;;;;2.65;0.80;;;10.50;99.90;;;;;;4053834;29;20084;-85
2023/04/26 09:33:59;;;;;;;3.60;0.77;;;10.80;99.90;;;;;;4021717;29;20065;-84
2023/04/26 09:36:11;;;;;;;4.63;1.40;;;11.20;99.90;;;;;;4028185;29;20124;-84
2023/04/26 09:38:15;;;;;;;5.45;1.10;;;11.20;99.90;;;;;;4045274;29;20049;-85
2023/04/26 09:40:20;;;;;;;5.93;1.75;;;11.00;99.90;;;;;;4026793;29;20113;-84
2023/04/26 09:42:21;;;;;;;2.22;0.77;;;10.80;99.90;;;;;;4009914;29;20547;-85
2023/04/26 09:44:23;;;;;;;4.00;0.80;;;10.70;99.90;;;;;;4041631;29;20049;-84
2023/04/26 09:46:24;;;;;;;4.95;0.63;;;10.70;99.90;;;;;;4041625;29;20056;-84
2023/04/26 09:48:29;;;;;;;2.08;0.50;;;10.60;99.90;;;;;;4009438;29;20057;-84
2023/04/26 09:50:30;;;;;;;5.47;0.60;;;11.70;99.90;;;;;;4024276;29;20170;-85
2023/04/26 09:52:42;;;;;;;8.30;1.05;;;10.80;99.90;;;;;;4045948;29;20105;-89
2023/04/26 09:54:48;;;;;;;5.32;1.20;;;10.80;99.90;;;;;;4012037;29;20073;-88
2023/04/26 09:57:00;;;;;;;1.50;0.80;;;10.90;99.90;;;;;;4028209;29;20494;-88
2023/04/26 09:59:03;;;;;;;2.88;0.80;;;11.00;99.40;;;;;;4045754;29;20087;-89
2023/04/26 10:01:07;;;;;;;2.22;0.88;;;11.00;99.90;;;;;;4046145;29;20060;-90
2023/04/26 10:03:09;;;;;;;4.03;1.23;;;11.00;99.50;;;;;;4030729;29;20060;-89
2023/04/26 10:05:10;;;;;;;5.05;0.70;;;11.00;99.60;;;;;;4045083;29;20045;-89
2023/04/26 10:07:12;;;;;;;3.63;1.42;;;10.20;99.40;;;;;;4040506;29;20076;-89
2023/04/26 10:09:14;;;;;;;3.20;0.65;;;11.10;99.20;;;;;;4040003;29;20132;-89
2023/04/26 10:11:17;;;;;;;0.68;0.50;;;11.30;99.30;;;;;;4056708;29;20059;-89
2023/04/26 10:13:18;;;;;;;4.20;0.60;;;11.40;98.90;;;;;;4025003;29;20068;-90
2023/04/26 10:15:20;;;;;;;2.67;0.70;;;11.60;98.80;;;;;;4039929;29;20087;-88
2023/04/26 10:17:22;;;;;;;3.50;0.70;;;11.80;98.70;;;;;;4055689;29;20446;-89
2023/04/26 10:19:25;;;;;;;4.93;0.70;;;12.00;98.60;;;;;;4025214;29;20061;-88
2023/04/26 10:21:32;;;;;;;5.82;1.60;;;12.10;98.50;;;;;;4049856;29;20095;-88
2023/04/26 10:23:34;;;;;;;3.85;0.80;;;12.20;98.10;;;;;;4019500;29;20037;-88
2023/04/26 10:25:39;;;;;;;5.35;0.70;;;12.10;98.40;;;;;;4023802;29;20049;-89
2023/04/26 10:27:46;;;;;;;4.35;1.13;;;11.00;97.80;;;;;;4034464;29;20057;-87
2023/04/26 10:29:58;;;;;;;3.92;0.75;;;12.00;98.00;;;;;;4038009;29;20088;-90
2023/04/26 10:32:04;;;;;;;1.35;0.50;;;11.90;97.80;;;;;;4023130;29;20173;-88
2023/04/26 10:34:20;;;;;;;5.97;0.80;;;11.80;98.20;;;;;;4041786;29;20149;-89
2023/04/26 10:36:21;;;;;;;9.23;1.23;;;11.80;98.00;;;;;;4053827;29;20534;-89
2023/04/26 10:38:23;;;;;;;3.33;0.70;;;11.70;98.50;;;;;;4028675;29;20136;-89
2023/04/26 10:40:38;;;;;;;2.75;0.60;;;11.70;98.50;;;;;;4055619;29;20045;-88
2023/04/26 10:42:44;;;;;;;1.27;0.50;;;11.60;98.30;;;;;;4042035;29;20053;-88
2023/04/26 10:44:52;;;;;;;4.90;0.95;;;11.50;98.70;;;;;;4022266;29;20095;-88
2023/04/26 10:46:54;;;;;;;3.33;1.05;;;11.30;99.00;;;;;;4034380;29;20555;-89